sensor_id;sensor_type;location;lat;lon;timestamp;temperature;humidity
45685;DHT22;46836;48.388;16.210;2022-09-03T00:00:14;14.10;99.90
45685;DHT22;46836;48.388;16.210;2022-09-03T00:02:45;14.10;99.90
45685;DHT22;46836;48.388;16.210;2022-09-03T00:08:29;14.00;99.90
45685;DHT22;46836;48.388;16.210;2022-09-03T00:11:13;14.00;99.90
45685;DHT22;46836;48.388;16.210;2022-09-03T00:16:29;14.00;99.90
45685;DHT22;46836;48.388;16.210;2022-09-03T00:19:01;14.00;99.90
45685;DHT22;46836;48.388;16.210;2022-09-03T00:21:51;14.00;99.90
45685;DHT22;46836;48.388;16.210;2022-09-03T00:24:22;13.90;99.90
45685;DHT22;46836;48.388;16.210;2022-09-03T00:26:54;13.90;99.90
45685;DHT22;46836;48.388;16.210;2022-09-03T00:29:40;13.90;99.90
45685;DHT22;46836;48.388;16.210;2022-09-03T00:32:26;13.90;99.90
45685;DHT22;46836;48.388;16.210;2022-09-03T00:35:02;13.90;99.90
45685;DHT22;46836;48.388;16.210;2022-09-03T00:37:32;13.90;99.90
45685;DHT22;46836;48.388;16.210;2022-09-03T00:40:05;13.90;99.90
45685;DHT22;46836;48.388;16.210;2022-09-03T00:43:12;13.80;99.90
45685;DHT22;46836;48.388;16.210;2022-09-03T00:45:44;13.80;99.90
45685;DHT22;46836;48.388;16.210;2022-09-03T00:48:24;13.80;99.90
45685;DHT22;46836;48.388;16.210;2022-09-03T00:54:17;13.70;99.90
45685;DHT22;46836;48.388;16.210;2022-09-03T00:57:06;13.70;99.90
45685;DHT22;46836;48.388;16.210;2022-09-03T00:59:48;13.60;99.90
45685;DHT22;46836;48.388;16.210;2022-09-03T01:13:37;13.50;99.90
45685;DHT22;46836;48.388;16.210;2022-09-03T01:16:37;13.50;99.90
45685;DHT22;46836;48.388;16.210;2022-09-03T01:22:39;13.50;99.90
45685;DHT22;46836;48.388;16.210;2022-09-03T01:30:24;13.30;99.90
45685;DHT22;46836;48.388;16.210;2022-09-03T01:33:32;13.30;99.90
45685;DHT22;46836;48.388;16.210;2022-09-03T01:39:05;13.30;99.90
45685;DHT22;46836;48.388;16.210;2022-09-03T01:41:42;13.20;99.90
45685;DHT22;46836;48.388;16.210;2022-09-03T01:50:05;13.20;99.90
45685;DHT22;46836;48.388;16.210;2022-09-03T01:52:45;13.20;99.90
45685;DHT22;46836;48.388;16.210;2022-09-03T01:55:28;13.10;99.90
45685;DHT22;46836;48.388;16.210;2022-09-03T02:00:33;13.10;99.90
45685;DHT22;46836;48.388;16.210;2022-09-03T02:03:04;13.10;99.90
45685;DHT22;46836;48.388;16.210;2022-09-03T02:05:33;13.10;99.90
45685;DHT22;46836;48.388;16.210;2022-09-03T02:08:04;13.10;99.90
45685;DHT22;46836;48.388;16.210;2022-09-03T02:10:46;13.00;99.90
45685;DHT22;46836;48.388;16.210;2022-09-03T02:13:27;13.00;99.90
45685;DHT22;46836;48.388;16.210;2022-09-03T02:16:00;13.00;99.90
45685;DHT22;46836;48.388;16.210;2022-09-03T02:18:33;13.00;99.90
45685;DHT22;46836;48.388;16.210;2022-09-03T02:21:02;13.00;99.90
45685;DHT22;46836;48.388;16.210;2022-09-03T02:23:30;12.90;99.90
45685;DHT22;46836;48.388;16.210;2022-09-03T02:26:01;12.90;99.90
45685;DHT22;46836;48.388;16.210;2022-09-03T02:28:29;12.90;99.90
45685;DHT22;46836;48.388;16.210;2022-09-03T02:30:57;12.90;99.90
45685;DHT22;46836;48.388;16.210;2022-09-03T02:33:25;12.90;99.90
45685;DHT22;46836;48.388;16.210;2022-09-03T02:35:53;12.90;99.90
45685;DHT22;46836;48.388;16.210;2022-09-03T02:38:23;12.90;99.90
45685;DHT22;46836;48.388;16.210;2022-09-03T02:40:52;12.90;99.90
45685;DHT22;46836;48.388;16.210;2022-09-03T02:43:27;12.90;99.90
45685;DHT22;46836;48.388;16.210;2022-09-03T02:46:01;12.90;99.90
45685;DHT22;46836;48.388;16.210;2022-09-03T02:48:29;12.80;99.90
45685;DHT22;46836;48.388;16.210;2022-09-03T02:50:56;12.80;99.90
45685;DHT22;46836;48.388;16.210;2022-09-03T02:53:23;12.80;99.90
45685;DHT22;46836;48.388;16.210;2022-09-03T02:55:50;12.80;99.90
45685;DHT22;46836;48.388;16.210;2022-09-03T02:58:17;12.80;99.90
45685;DHT22;46836;48.388;16.210;2022-09-03T03:00:45;12.80;99.90
45685;DHT22;46836;48.388;16.210;2022-09-03T03:03:12;12.80;99.90
45685;DHT22;46836;48.388;16.210;2022-09-03T03:05:49;12.70;99.90
45685;DHT22;46836;48.388;16.210;2022-09-03T03:08:18;12.80;99.90
45685;DHT22;46836;48.388;16.210;2022-09-03T03:10:48;12.70;99.90
45685;DHT22;46836;48.388;16.210;2022-09-03T03:13:16;12.70;99.90
45685;DHT22;46836;48.388;16.210;2022-09-03T03:15:44;12.70;99.90
45685;DHT22;46836;48.388;16.210;2022-09-03T03:18:15;12.70;99.90
45685;DHT22;46836;48.388;16.210;2022-09-03T03:20:43;12.70;99.90
45685;DHT22;46836;48.388;16.210;2022-09-03T03:23:10;12.70;99.90
45685;DHT22;46836;48.388;16.210;2022-09-03T03:25:38;12.60;99.90
45685;DHT22;46836;48.388;16.210;2022-09-03T03:28:06;12.60;99.90
45685;DHT22;46836;48.388;16.210;2022-09-03T03:30:37;12.60;99.90
45685;DHT22;46836;48.388;16.210;2022-09-03T03:33:09;12.60;99.90
45685;DHT22;46836;48.388;16.210;2022-09-03T03:35:39;12.60;99.90
45685;DHT22;46836;48.388;16.210;2022-09-03T03:38:08;12.60;99.90
45685;DHT22;46836;48.388;16.210;2022-09-03T03:40:37;12.50;99.90
45685;DHT22;46836;48.388;16.210;2022-09-03T03:43:04;12.50;99.90
45685;DHT22;46836;48.388;16.210;2022-09-03T03:45:31;12.50;99.90
45685;DHT22;46836;48.388;16.210;2022-09-03T03:47:59;12.40;99.90
45685;DHT22;46836;48.388;16.210;2022-09-03T03:50:26;12.40;99.90
45685;DHT22;46836;48.388;16.210;2022-09-03T03:52:53;12.40;99.90
45685;DHT22;46836;48.388;16.210;2022-09-03T03:55:20;12.30;99.90
45685;DHT22;46836;48.388;16.210;2022-09-03T03:57:52;12.30;99.90
45685;DHT22;46836;48.388;16.210;2022-09-03T04:00:19;12.30;99.90
45685;DHT22;46836;48.388;16.210;2022-09-03T04:02:50;12.30;99.90
45685;DHT22;46836;48.388;16.210;2022-09-03T04:05:17;12.20;99.90
45685;DHT22;46836;48.388;16.210;2022-09-03T04:07:48;12.20;99.90
45685;DHT22;46836;48.388;16.210;2022-09-03T04:10:15;12.20;99.90
45685;DHT22;46836;48.388;16.210;2022-09-03T04:12:42;12.20;99.90
45685;DHT22;46836;48.388;16.210;2022-09-03T04:15:09;12.20;99.90
45685;DHT22;46836;48.388;16.210;2022-09-03T04:17:36;12.20;99.90
45685;DHT22;46836;48.388;16.210;2022-09-03T04:20:04;12.20;99.90
45685;DHT22;46836;48.388;16.210;2022-09-03T04:22:31;12.10;99.90
45685;DHT22;46836;48.388;16.210;2022-09-03T04:24:58;12.10;99.90
45685;DHT22;46836;48.388;16.210;2022-09-03T04:27:25;12.10;99.90
45685;DHT22;46836;48.388;16.210;2022-09-03T04:29:52;12.10;99.90
45685;DHT22;46836;48.388;16.210;2022-09-03T04:32:19;12.10;99.90
45685;DHT22;46836;48.388;16.210;2022-09-03T04:35:05;12.10;99.90
45685;DHT22;46836;48.388;16.210;2022-09-03T04:37:32;12.10;99.90
45685;DHT22;46836;48.388;16.210;2022-09-03T04:39:59;12.10;99.90
45685;DHT22;46836;48.388;16.210;2022-09-03T04:42:27;12.10;99.90
45685;DHT22;46836;48.388;16.210;2022-09-03T04:44:54;12.10;99.90
45685;DHT22;46836;48.388;16.210;2022-09-03T04:47:21;12.10;99.90
45685;DHT22;46836;48.388;16.210;2022-09-03T04:49:48;12.10;99.90
45685;DHT22;46836;48.388;16.210;2022-09-03T04:52:15;12.10;99.90
45685;DHT22;46836;48.388;16.210;2022-09-03T04:54:42;12.20;99.90
45685;DHT22;46836;48.388;16.210;2022-09-03T04:57:09;12.20;99.90
45685;DHT22;46836;48.388;16.210;2022-09-03T04:59:36;12.20;99.90
45685;DHT22;46836;48.388;16.210;2022-09-03T05:02:03;12.20;99.90
45685;DHT22;46836;48.388;16.210;2022-09-03T05:04:30;12.30;99.90
45685;DHT22;46836;48.388;16.210;2022-09-03T05:06:57;12.30;99.90
45685;DHT22;46836;48.388;16.210;2022-09-03T05:09:24;12.40;99.90
45685;DHT22;46836;48.388;16.210;2022-09-03T05:11:51;12.40;99.90
45685;DHT22;46836;48.388;16.210;2022-09-03T05:14:18;12.40;99.90
45685;DHT22;46836;48.388;16.210;2022-09-03T05:16:45;12.50;99.90
45685;DHT22;46836;48.388;16.210;2022-09-03T05:19:18;12.50;99.90
45685;DHT22;46836;48.388;16.210;2022-09-03T05:21:45;12.60;99.90
45685;DHT22;46836;48.388;16.210;2022-09-03T05:24:12;12.70;99.90
45685;DHT22;46836;48.388;16.210;2022-09-03T05:26:40;12.80;99.90
45685;DHT22;46836;48.388;16.210;2022-09-03T05:29:07;12.80;99.90
45685;DHT22;46836;48.388;16.210;2022-09-03T05:31:38;12.90;99.90
45685;DHT22;46836;48.388;16.210;2022-09-03T05:34:06;13.00;99.90
45685;DHT22;46836;48.388;16.210;2022-09-03T05:36:35;13.00;99.90
45685;DHT22;46836;48.388;16.210;2022-09-03T05:39:03;13.10;99.90
45685;DHT22;46836;48.388;16.210;2022-09-03T05:41:31;13.20;99.90
45685;DHT22;46836;48.388;16.210;2022-09-03T05:44:00;13.20;99.90
45685;DHT22;46836;48.388;16.210;2022-09-03T05:46:29;13.30;99.90
45685;DHT22;46836;48.388;16.210;2022-09-03T05:49:03;13.40;99.90
45685;DHT22;46836;48.388;16.210;2022-09-03T05:51:31;13.50;99.90
45685;DHT22;46836;48.388;16.210;2022-09-03T05:53:59;13.50;99.90
45685;DHT22;46836;48.388;16.210;2022-09-03T05:56:28;13.60;99.90
45685;DHT22;46836;48.388;16.210;2022-09-03T05:58:57;13.70;99.90
45685;DHT22;46836;48.388;16.210;2022-09-03T06:01:33;13.80;99.90
45685;DHT22;46836;48.388;16.210;2022-09-03T06:04:02;13.90;99.90
45685;DHT22;46836;48.388;16.210;2022-09-03T06:06:32;13.90;99.90
45685;DHT22;46836;48.388;16.210;2022-09-03T06:09:02;14.00;99.90
45685;DHT22;46836;48.388;16.210;2022-09-03T06:11:31;14.10;99.90
45685;DHT22;46836;48.388;16.210;2022-09-03T06:14:01;14.20;99.90
45685;DHT22;46836;48.388;16.210;2022-09-03T06:16:29;14.30;99.90
45685;DHT22;46836;48.388;16.210;2022-09-03T06:18:58;14.40;99.90
45685;DHT22;46836;48.388;16.210;2022-09-03T06:21:27;14.50;99.90
45685;DHT22;46836;48.388;16.210;2022-09-03T06:23:55;14.60;99.90
45685;DHT22;46836;48.388;16.210;2022-09-03T06:26:26;14.70;99.90
45685;DHT22;46836;48.388;16.210;2022-09-03T06:28:55;14.80;99.90
45685;DHT22;46836;48.388;16.210;2022-09-03T06:31:24;14.90;99.90
45685;DHT22;46836;48.388;16.210;2022-09-03T06:33:52;15.10;99.90
45685;DHT22;46836;48.388;16.210;2022-09-03T06:36:21;15.20;99.90
45685;DHT22;46836;48.388;16.210;2022-09-03T06:38:54;15.30;99.90
45685;DHT22;46836;48.388;16.210;2022-09-03T06:41:31;15.50;99.90
45685;DHT22;46836;48.388;16.210;2022-09-03T06:44:03;15.60;99.90
45685;DHT22;46836;48.388;16.210;2022-09-03T06:46:33;15.70;99.90
45685;DHT22;46836;48.388;16.210;2022-09-03T06:49:00;15.80;99.90
45685;DHT22;46836;48.388;16.210;2022-09-03T06:51:29;15.90;99.90
45685;DHT22;46836;48.388;16.210;2022-09-03T06:54:08;16.00;99.90
45685;DHT22;46836;48.388;16.210;2022-09-03T06:56:38;16.10;99.90
45685;DHT22;46836;48.388;16.210;2022-09-03T06:59:09;16.30;99.90
45685;DHT22;46836;48.388;16.210;2022-09-03T07:01:36;16.40;99.90
45685;DHT22;46836;48.388;16.210;2022-09-03T07:04:11;16.50;99.90
45685;DHT22;46836;48.388;16.210;2022-09-03T07:06:39;16.60;99.90
45685;DHT22;46836;48.388;16.210;2022-09-03T07:09:09;16.70;99.90
45685;DHT22;46836;48.388;16.210;2022-09-03T07:11:37;16.80;99.90
45685;DHT22;46836;48.388;16.210;2022-09-03T07:14:15;16.90;99.90
45685;DHT22;46836;48.388;16.210;2022-09-03T07:16:43;17.00;99.90
45685;DHT22;46836;48.388;16.210;2022-09-03T07:19:10;17.10;99.90
45685;DHT22;46836;48.388;16.210;2022-09-03T07:21:39;17.10;99.90
45685;DHT22;46836;48.388;16.210;2022-09-03T07:24:16;17.20;99.90
45685;DHT22;46836;48.388;16.210;2022-09-03T07:26:44;17.30;99.90
45685;DHT22;46836;48.388;16.210;2022-09-03T07:29:12;17.30;99.90
45685;DHT22;46836;48.388;16.210;2022-09-03T07:31:42;17.40;99.90
45685;DHT22;46836;48.388;16.210;2022-09-03T07:34:11;17.60;99.90
45685;DHT22;46836;48.388;16.210;2022-09-03T07:36:44;17.70;99.90
45685;DHT22;46836;48.388;16.210;2022-09-03T07:39:15;17.80;99.90
45685;DHT22;46836;48.388;16.210;2022-09-03T07:41:44;17.90;99.90
45685;DHT22;46836;48.388;16.210;2022-09-03T07:44:13;17.90;99.90
45685;DHT22;46836;48.388;16.210;2022-09-03T07:46:42;18.00;99.90
45685;DHT22;46836;48.388;16.210;2022-09-03T07:49:11;18.20;99.90
45685;DHT22;46836;48.388;16.210;2022-09-03T07:51:38;18.30;99.90
45685;DHT22;46836;48.388;16.210;2022-09-03T07:54:07;18.40;99.90
45685;DHT22;46836;48.388;16.210;2022-09-03T07:56:38;18.60;99.90
45685;DHT22;46836;48.388;16.210;2022-09-03T07:59:06;18.70;99.90
45685;DHT22;46836;48.388;16.210;2022-09-03T08:01:34;18.80;99.90
45685;DHT22;46836;48.388;16.210;2022-09-03T08:04:01;18.90;99.90
45685;DHT22;46836;48.388;16.210;2022-09-03T08:06:31;19.00;99.90
45685;DHT22;46836;48.388;16.210;2022-09-03T08:09:01;19.10;99.90
45685;DHT22;46836;48.388;16.210;2022-09-03T08:11:32;19.30;99.90
45685;DHT22;46836;48.388;16.210;2022-09-03T08:14:05;19.40;99.90
45685;DHT22;46836;48.388;16.210;2022-09-03T08:16:38;19.50;99.90
45685;DHT22;46836;48.388;16.210;2022-09-03T08:19:05;19.50;99.90
45685;DHT22;46836;48.388;16.210;2022-09-03T08:21:33;19.60;99.90
45685;DHT22;46836;48.388;16.210;2022-09-03T08:24:01;19.70;99.90
45685;DHT22;46836;48.388;16.210;2022-09-03T08:26:33;19.80;99.90
45685;DHT22;46836;48.388;16.210;2022-09-03T08:29:01;20.10;99.90
45685;DHT22;46836;48.388;16.210;2022-09-03T08:31:29;20.20;99.90
45685;DHT22;46836;48.388;16.210;2022-09-03T08:33:58;20.40;99.90
45685;DHT22;46836;48.388;16.210;2022-09-03T08:36:28;20.50;99.90
45685;DHT22;46836;48.388;16.210;2022-09-03T08:38:59;20.50;99.90
45685;DHT22;46836;48.388;16.210;2022-09-03T08:44:59;20.70;99.90
45685;DHT22;46836;48.388;16.210;2022-09-03T08:47:35;20.70;99.90
45685;DHT22;46836;48.388;16.210;2022-09-03T08:52:51;21.00;99.90
45685;DHT22;46836;48.388;16.210;2022-09-03T08:55:52;21.10;99.90
45685;DHT22;46836;48.388;16.210;2022-09-03T08:58:29;21.20;99.90
45685;DHT22;46836;48.388;16.210;2022-09-03T09:08:53;21.70;99.90
45685;DHT22;46836;48.388;16.210;2022-09-03T09:22:33;22.20;99.90
45685;DHT22;46836;48.388;16.210;2022-09-03T09:25:10;22.40;99.90
45685;DHT22;46836;48.388;16.210;2022-09-03T09:30:27;22.40;99.90
45685;DHT22;46836;48.388;16.210;2022-09-03T09:32:54;22.50;99.90
45685;DHT22;46836;48.388;16.210;2022-09-03T09:35:22;22.60;99.90
45685;DHT22;46836;48.388;16.210;2022-09-03T09:37:52;22.70;99.90
45685;DHT22;46836;48.388;16.210;2022-09-03T09:40:37;22.80;99.90
45685;DHT22;46836;48.388;16.210;2022-09-03T09:43:18;22.90;99.90
45685;DHT22;46836;48.388;16.210;2022-09-03T09:45:49;23.00;99.90
45685;DHT22;46836;48.388;16.210;2022-09-03T09:48:37;23.00;99.90
45685;DHT22;46836;48.388;16.210;2022-09-03T09:51:09;23.10;99.90
45685;DHT22;46836;48.388;16.210;2022-09-03T09:53:38;23.20;99.90
45685;DHT22;46836;48.388;16.210;2022-09-03T09:56:06;23.30;99.90
45685;DHT22;46836;48.388;16.210;2022-09-03T09:58:34;23.40;99.90
45685;DHT22;46836;48.388;16.210;2022-09-03T10:01:11;23.40;99.90
45685;DHT22;46836;48.388;16.210;2022-09-03T10:03:59;23.50;99.90
45685;DHT22;46836;48.388;16.210;2022-09-03T10:06:37;23.60;99.90
45685;DHT22;46836;48.388;16.210;2022-09-03T10:09:28;23.70;99.90
45685;DHT22;46836;48.388;16.210;2022-09-03T10:12:23;23.80;99.90
45685;DHT22;46836;48.388;16.210;2022-09-03T10:27:31;24.40;99.90
45685;DHT22;46836;48.388;16.210;2022-09-03T10:30:00;24.50;99.90
45685;DHT22;46836;48.388;16.210;2022-09-03T10:35:31;24.80;99.90
45685;DHT22;46836;48.388;16.210;2022-09-03T10:41:07;24.90;99.90
45685;DHT22;46836;48.388;16.210;2022-09-03T10:46:28;25.10;99.90
45685;DHT22;46836;48.388;16.210;2022-09-03T10:49:16;25.00;99.90
45685;DHT22;46836;48.388;16.210;2022-09-03T10:52:08;24.80;99.90
45685;DHT22;46836;48.388;16.210;2022-09-03T11:00:25;24.80;99.90
45685;DHT22;46836;48.388;16.210;2022-09-03T11:03:30;24.90;99.90
45685;DHT22;46836;48.388;16.210;2022-09-03T11:09:04;25.30;99.90
45685;DHT22;46836;48.388;16.210;2022-09-03T11:11:41;25.50;99.90
45685;DHT22;46836;48.388;16.210;2022-09-03T11:14:12;25.50;99.90
45685;DHT22;46836;48.388;16.210;2022-09-03T11:17:08;25.50;99.90
45685;DHT22;46836;48.388;16.210;2022-09-03T11:22:33;25.50;99.90
45685;DHT22;46836;48.388;16.210;2022-09-03T11:25:02;25.50;99.90
45685;DHT22;46836;48.388;16.210;2022-09-03T11:27:55;25.50;99.90
45685;DHT22;46836;48.388;16.210;2022-09-03T11:30:53;25.60;99.90
45685;DHT22;46836;48.388;16.210;2022-09-03T11:33:26;25.80;99.90
45685;DHT22;46836;48.388;16.210;2022-09-03T11:35:56;25.90;99.90
45685;DHT22;46836;48.388;16.210;2022-09-03T11:38:30;26.00;99.90
45685;DHT22;46836;48.388;16.210;2022-09-03T11:41:10;26.20;99.90
45685;DHT22;46836;48.388;16.210;2022-09-03T11:43:39;26.30;99.90
45685;DHT22;46836;48.388;16.210;2022-09-03T11:46:13;26.30;99.90
45685;DHT22;46836;48.388;16.210;2022-09-03T11:48:55;26.40;99.90
45685;DHT22;46836;48.388;16.210;2022-09-03T11:51:29;26.50;99.90
45685;DHT22;46836;48.388;16.210;2022-09-03T11:54:02;26.70;99.90
45685;DHT22;46836;48.388;16.210;2022-09-03T11:56:31;26.70;99.90
45685;DHT22;46836;48.388;16.210;2022-09-03T11:59:27;26.70;99.90
45685;DHT22;46836;48.388;16.210;2022-09-03T12:02:10;26.70;99.90
45685;DHT22;46836;48.388;16.210;2022-09-03T12:16:14;26.50;99.90
45685;DHT22;46836;48.388;16.210;2022-09-03T12:18:47;26.40;99.90
45685;DHT22;46836;48.388;16.210;2022-09-03T12:21:19;26.10;99.90
45685;DHT22;46836;48.388;16.210;2022-09-03T12:23:49;26.00;99.90
45685;DHT22;46836;48.388;16.210;2022-09-03T12:26:25;25.90;99.90
45685;DHT22;46836;48.388;16.210;2022-09-03T12:28:56;25.80;99.90
45685;DHT22;46836;48.388;16.210;2022-09-03T12:31:28;25.80;99.90
45685;DHT22;46836;48.388;16.210;2022-09-03T12:33:59;25.80;99.90
45685;DHT22;46836;48.388;16.210;2022-09-03T12:36:40;25.90;99.90
45685;DHT22;46836;48.388;16.210;2022-09-03T12:39:15;26.10;99.90
45685;DHT22;46836;48.388;16.210;2022-09-03T12:42:04;26.10;99.90
45685;DHT22;46836;48.388;16.210;2022-09-03T12:44:40;26.20;99.90
45685;DHT22;46836;48.388;16.210;2022-09-03T12:47:19;26.20;99.90
45685;DHT22;46836;48.388;16.210;2022-09-03T12:50:15;26.30;99.90
45685;DHT22;46836;48.388;16.210;2022-09-03T13:00:49;26.90;99.90
45685;DHT22;46836;48.388;16.210;2022-09-03T13:06:06;26.80;99.90
45685;DHT22;46836;48.388;16.210;2022-09-03T13:08:43;26.80;99.90
45685;DHT22;46836;48.388;16.210;2022-09-03T13:11:16;26.90;99.90
45685;DHT22;46836;48.388;16.210;2022-09-03T13:14:08;27.00;99.90
45685;DHT22;46836;48.388;16.210;2022-09-03T13:32:56;26.90;99.90
45685;DHT22;46836;48.388;16.210;2022-09-03T13:35:45;26.90;99.90
45685;DHT22;46836;48.388;16.210;2022-09-03T13:38:38;26.90;99.90
45685;DHT22;46836;48.388;16.210;2022-09-03T13:43:56;26.80;99.90
45685;DHT22;46836;48.388;16.210;2022-09-03T13:46:33;26.70;99.90
45685;DHT22;46836;48.388;16.210;2022-09-03T13:52:58;26.50;99.90
45685;DHT22;46836;48.388;16.210;2022-09-03T13:55:41;26.30;99.90
45685;DHT22;46836;48.388;16.210;2022-09-03T13:58:32;26.20;99.90
45685;DHT22;46836;48.388;16.210;2022-09-03T14:04:21;26.20;99.90
45685;DHT22;46836;48.388;16.210;2022-09-03T14:07:02;26.30;99.90
45685;DHT22;46836;48.388;16.210;2022-09-03T14:09:38;26.50;99.90
45685;DHT22;46836;48.388;16.210;2022-09-03T14:15:07;26.70;99.90
45685;DHT22;46836;48.388;16.210;2022-09-03T14:17:51;26.80;99.90
45685;DHT22;46836;48.388;16.210;2022-09-03T14:20:30;27.00;99.90
45685;DHT22;46836;48.388;16.210;2022-09-03T14:25:55;27.00;99.90
45685;DHT22;46836;48.388;16.210;2022-09-03T14:28:39;27.10;99.90
45685;DHT22;46836;48.388;16.210;2022-09-03T14:31:33;27.20;99.90
45685;DHT22;46836;48.388;16.210;2022-09-03T14:34:12;27.30;99.90
45685;DHT22;46836;48.388;16.210;2022-09-03T14:40:18;27.40;99.90
45685;DHT22;46836;48.388;16.210;2022-09-03T14:43:00;27.60;99.90
45685;DHT22;46836;48.388;16.210;2022-09-03T14:51:32;27.80;99.90
45685;DHT22;46836;48.388;16.210;2022-09-03T15:00:05;28.00;99.90
45685;DHT22;46836;48.388;16.210;2022-09-03T15:10:47;28.00;99.60
45685;DHT22;46836;48.388;16.210;2022-09-03T15:13:32;28.00;99.90
45685;DHT22;46836;48.388;16.210;2022-09-03T15:16:16;27.90;99.90
45685;DHT22;46836;48.388;16.210;2022-09-03T15:20:10;27.70;99.70
45685;DHT22;46836;48.388;16.210;2022-09-03T15:22:12;27.60;99.30
45685;DHT22;46836;48.388;16.210;2022-09-03T15:30:15;27.30;99.80
45685;DHT22;46836;48.388;16.210;2022-09-03T15:44:17;27.30;99.60
45685;DHT22;46836;48.388;16.210;2022-09-03T15:47:00;27.20;99.90
45685;DHT22;46836;48.388;16.210;2022-09-03T15:56:11;27.00;99.90
45685;DHT22;46836;48.388;16.210;2022-09-03T15:58:58;26.90;99.90
45685;DHT22;46836;48.388;16.210;2022-09-03T16:01:38;26.90;99.90
45685;DHT22;46836;48.388;16.210;2022-09-03T16:13:26;26.90;99.90
45685;DHT22;46836;48.388;16.210;2022-09-03T16:16:01;26.80;99.90
45685;DHT22;46836;48.388;16.210;2022-09-03T16:18:38;26.60;99.90
45685;DHT22;46836;48.388;16.210;2022-09-03T16:21:27;26.30;99.90
45685;DHT22;46836;48.388;16.210;2022-09-03T16:24:01;26.10;99.90
45685;DHT22;46836;48.388;16.210;2022-09-03T16:26:40;25.90;99.90
45685;DHT22;46836;48.388;16.210;2022-09-03T16:29:17;25.70;99.90
45685;DHT22;46836;48.388;16.210;2022-09-03T16:35:18;25.40;99.90
45685;DHT22;46836;48.388;16.210;2022-09-03T16:40:43;25.20;99.90
45685;DHT22;46836;48.388;16.210;2022-09-03T16:43:43;25.20;99.90
45685;DHT22;46836;48.388;16.210;2022-09-03T16:46:24;25.10;99.90
45685;DHT22;46836;48.388;16.210;2022-09-03T16:49:13;25.00;99.90
45685;DHT22;46836;48.388;16.210;2022-09-03T16:52:20;24.90;99.90
45685;DHT22;46836;48.388;16.210;2022-09-03T16:55:23;24.90;99.90
45685;DHT22;46836;48.388;16.210;2022-09-03T16:58:13;24.80;99.90
45685;DHT22;46836;48.388;16.210;2022-09-03T17:07:07;24.50;99.90
45685;DHT22;46836;48.388;16.210;2022-09-03T17:09:57;24.30;99.90
45685;DHT22;46836;48.388;16.210;2022-09-03T17:26:52;23.70;99.90
45685;DHT22;46836;48.388;16.210;2022-09-03T17:35:16;23.50;99.90
45685;DHT22;46836;48.388;16.210;2022-09-03T17:37:59;23.40;99.90
45685;DHT22;46836;48.388;16.210;2022-09-03T17:59:48;22.90;99.90
45685;DHT22;46836;48.388;16.210;2022-09-03T18:13:15;22.60;99.90
45685;DHT22;46836;48.388;16.210;2022-09-03T18:16:14;22.50;99.90
45685;DHT22;46836;48.388;16.210;2022-09-03T18:18:47;22.50;99.90
45685;DHT22;46836;48.388;16.210;2022-09-03T18:21:24;22.40;99.90
45685;DHT22;46836;48.388;16.210;2022-09-03T18:24:29;22.40;99.90
45685;DHT22;46836;48.388;16.210;2022-09-03T18:30:29;22.20;99.90
45685;DHT22;46836;48.388;16.210;2022-09-03T18:33:22;22.10;99.90
45685;DHT22;46836;48.388;16.210;2022-09-03T18:36:09;22.10;99.90
45685;DHT22;46836;48.388;16.210;2022-09-03T18:39:46;22.10;99.90
45685;DHT22;46836;48.388;16.210;2022-09-03T18:45:38;22.00;99.90
45685;DHT22;46836;48.388;16.210;2022-09-03T18:48:54;21.90;99.90
45685;DHT22;46836;48.388;16.210;2022-09-03T19:01:27;21.70;99.90
45685;DHT22;46836;48.388;16.210;2022-09-03T19:10:50;21.70;99.90
45685;DHT22;46836;48.388;16.210;2022-09-03T19:13:40;21.70;99.90
45685;DHT22;46836;48.388;16.210;2022-09-03T19:16:38;21.70;99.90
45685;DHT22;46836;48.388;16.210;2022-09-03T19:22:50;21.60;99.90
45685;DHT22;46836;48.388;16.210;2022-09-03T19:25:36;21.50;99.90
45685;DHT22;46836;48.388;16.210;2022-09-03T19:28:28;21.50;99.90
45685;DHT22;46836;48.388;16.210;2022-09-03T19:37:34;21.40;99.90
45685;DHT22;46836;48.388;16.210;2022-09-03T19:43:40;21.30;99.90
45685;DHT22;46836;48.388;16.210;2022-09-03T19:46:46;21.30;99.90
45685;DHT22;46836;48.388;16.210;2022-09-03T19:53:03;21.20;99.90
45685;DHT22;46836;48.388;16.210;2022-09-03T19:55:55;21.10;99.90
45685;DHT22;46836;48.388;16.210;2022-09-03T19:58:49;21.10;99.90
45685;DHT22;46836;48.388;16.210;2022-09-03T20:01:37;21.00;99.90
45685;DHT22;46836;48.388;16.210;2022-09-03T20:04:43;21.00;99.90
45685;DHT22;46836;48.388;16.210;2022-09-03T20:07:31;20.90;99.90
45685;DHT22;46836;48.388;16.210;2022-09-03T20:10:20;20.90;99.90
45685;DHT22;46836;48.388;16.210;2022-09-03T20:13:12;20.90;99.90
45685;DHT22;46836;48.388;16.210;2022-09-03T20:16:12;20.90;99.90
45685;DHT22;46836;48.388;16.210;2022-09-03T20:19:15;20.90;99.90
45685;DHT22;46836;48.388;16.210;2022-09-03T20:30:17;20.90;99.90
45685;DHT22;46836;48.388;16.210;2022-09-03T20:36:29;20.90;99.90
45685;DHT22;46836;48.388;16.210;2022-09-03T20:42:15;20.80;99.90
45685;DHT22;46836;48.388;16.210;2022-09-03T20:48:08;20.80;99.90
45685;DHT22;46836;48.388;16.210;2022-09-03T21:01:50;20.70;99.90
45685;DHT22;46836;48.388;16.210;2022-09-03T21:07:49;20.70;99.90
45685;DHT22;46836;48.388;16.210;2022-09-03T21:10:31;20.60;99.90
45685;DHT22;46836;48.388;16.210;2022-09-03T21:15:36;20.70;99.90
45685;DHT22;46836;48.388;16.210;2022-09-03T21:26:30;20.80;99.90
45685;DHT22;46836;48.388;16.210;2022-09-03T21:29:10;20.80;99.90
45685;DHT22;46836;48.388;16.210;2022-09-03T21:31:40;20.80;99.90
45685;DHT22;46836;48.388;16.210;2022-09-03T21:34:23;20.80;99.90
45685;DHT22;46836;48.388;16.210;2022-09-03T21:36:55;20.80;99.90
45685;DHT22;46836;48.388;16.210;2022-09-03T21:39:43;20.80;99.90
45685;DHT22;46836;48.388;16.210;2022-09-03T21:45:03;20.80;99.90
45685;DHT22;46836;48.388;16.210;2022-09-03T21:47:41;20.80;99.90
45685;DHT22;46836;48.388;16.210;2022-09-03T21:50:21;20.80;99.90
45685;DHT22;46836;48.388;16.210;2022-09-03T21:53:10;20.80;99.90
45685;DHT22;46836;48.388;16.210;2022-09-03T21:58:19;20.80;99.90
45685;DHT22;46836;48.388;16.210;2022-09-03T22:00:55;20.70;99.90
45685;DHT22;46836;48.388;16.210;2022-09-03T22:03:25;20.70;99.90
45685;DHT22;46836;48.388;16.210;2022-09-03T22:05:57;20.70;99.90
45685;DHT22;46836;48.388;16.210;2022-09-03T22:11:26;20.60;99.90
45685;DHT22;46836;48.388;16.210;2022-09-03T22:14:15;20.60;99.90